Wellington, FL

4:48 PM EDT on April 28, 2015 (GMT -0400)
Indigo Weather | | Change Station
CLOSE
Current Station
Personal Weather Station
Location: Wellington, FL
Elevation: 23 ft
Nearby Weather Stations

Elev 23 ft 26.67 °N, 80.26 °W | Updated 11 minutes ago

Mostly Cloudy
Mostly Cloudy
73.6 °F
Feels Like 75 °F
N
2.0
Wind Variable Wind from North
Gusts 8.0 mph

Today
High -- | Low -- °F
--% Chance of Precip.
Yesterday
High -- | Low -- °F
Precip. -- in
6:45 AM 7:51 PM
Waxing Gibbous, 76% visible
Pressure 29.77 in
Visibility 10.0 miles
Clouds Mostly Cloudy 1400 ft
Mostly Cloudy 4200 ft
Overcast 10000 ft
Heat Index 75 °F
Dew Point 65 °F
Humidity 74%
Rainfall 0.63 in
Snow Depth Not available.
UV 2 out of 12
Pollen 1.00 out of 12
Air Quality Not available.
Flu Activity Local Activity
SPECI KPBI 282042Z 07014KT 10SM BKN014 BKN042 OVC100 24/21 A2977 RMK AO2 RAE31 CB DSNT SE-SW P0000 T02440211 $

More Conditions Fewer Conditions

Pressure 29.77 in
Visibility 10.0 miles
Clouds Mostly Cloudy 1400 ft
Mostly Cloudy 4200 ft
Overcast 10000 ft
Heat Index 75 °F
Dew Point 65 °F
Humidity 74%
Rainfall 0.63 in
Snow Depth Not available.
UV 2 out of 12
Pollen 1.00 out of 12
Air Quality Not available.
Flu Activity Local Activity
SPECI KPBI 282042Z 07014KT 10SM BKN014 BKN042 OVC100 24/21 A2977 RMK AO2 RAE31 CB DSNT SE-SW P0000 T02440211 $

More Conditions Fewer Conditions

10-Day Weather Forecast

Almanac

Astronomy

Apr. 28, 2015 Rise Set
Actual Time
Civil Twilight
Nautical Twilight
Astronomical Twilight
Moon
Length of Visible Light
Length of Day
Tomorrow will be .
, % of the Moon is Illuminated

Today's Extremes

State Highs State Lows

Community

WunderPhotos

Upload Photos

1,817,749 photos uploaded!

WunderBlogs® & News

Nearby

Air Quality

  Air Quality AQ Index Pollutant
Not available.

Snow Depth

Station Depth Elevation

Earthquake Activity

City Distance Mag. Time & Date
Minimum magnitude displayed is 2.5.

Coastal Water Temperatures

Place Temperature

Stations

Nearby Weather Stations

Station Location Temp. Windchill Dew Point Humidity Wind Precip. Elev Updated Type